Skopje-Petrovec, Macedonia

12:24 PM CEST on September 30, 2014 (GMT +0200)
Skopje | Change Station
CLOSE
Current Station
Airport
Location: Skopje-Petrovec,
Elevation: 784 ft
Nearby Weather Stations

Elev 784 ft 41.97 °N, 21.65 °E | Updated 24 minutes ago

Clear
Clear
64 °F
Feels Like 64 °F
N
0
Wind Variable Wind from North

Today
High -- | Low -- °F
--% Chance of Precip.
Yesterday
High -- | Low -- °F
Precip. -- in
6:28 AM 6:17 PM
Waxing Crescent, 35% visible
Pressure 30.33 in
Visibility -9999.0 miles
Clouds
Dew Point 48 °F
Humidity 56%
Rainfall 0.00 in
Snow Depth Not available.
UV Not available.
Pollen Not available.
Air Quality Not available.
Flu Activity Not available.
METAR LWSK 301000Z 00000KT CAVOK 18/09 Q1027 NOSIG

More Conditions Fewer Conditions

Pressure 30.33 in
Visibility -9999.0 miles
Clouds
Dew Point 48 °F
Humidity 56%
Rainfall 0.00 in
Snow Depth Not available.
UV Not available.
Pollen Not available.
Air Quality Not available.
Flu Activity Not available.
METAR LWSK 301000Z 00000KT CAVOK 18/09 Q1027 NOSIG

More Conditions Fewer Conditions

10-Day Weather Forecast

Almanac

Astronomy

Sep. 30, 2014 Rise Set
Actual Time 6:28 AM CEST 6:17 PM CEST
Civil Twilight 6:01 AM CEST 6:45 PM CEST
Nautical Twilight 5:28 AM CEST 7:17 PM CEST
Astronomical Twilight 4:55 AM CEST 7:50 PM CEST
Moon 12:24 PM CEST 10:25 PM CEST
Length of Visible Light 12h 43m
Length of Day
11h 48m
Tomorrow will be 2m 48s shorter.
Waxing Crescent, 35% of the Moon is Illuminated
Today
Waxing Crescent
Oct 1
First Quarter
Oct 8
Full
Oct 15
Last Quarter
Oct 23
New

Yesterday's Extremes

Country Highs Country Lows

Community

WunderPhotos

Upload Photos

1,757,610 photos uploaded!

WunderBlogs® & News

Nearby

Snow Depth

Not available.

Earthquake Activity

City Distance Mag. Time & Date
No recent earthquake activity has been reported nearby.
Minimum magnitude displayed is 2.5.

Coastal Water Temperatures

Place Temperature
No Stations Reporting

Nearby Weather Stations